createdAt,value
2022-10-24T17:25:06.256Z,56
2022-10-24T17:30:38.368Z,55.6
2022-10-24T17:36:14.564Z,55
2022-10-24T17:41:57.879Z,57.9
2022-10-24T17:47:33.316Z,56.9
2022-10-24T17:53:20.633Z,59.7
2022-10-24T17:59:07.375Z,57.6
2022-10-24T18:04:58.057Z,56.4
2022-10-24T18:10:35.509Z,60.3
2022-10-24T18:16:23.100Z,60.4
2022-10-24T18:22:16.393Z,60
2022-10-24T18:27:56.463Z,62.8
2022-10-24T18:33:31.416Z,63.1
2022-10-24T18:39:11.236Z,62.9
2022-10-24T18:44:51.520Z,64.5
2022-10-24T18:50:27.102Z,66.5
2022-10-24T18:56:04.186Z,66
2022-10-24T19:03:03.683Z,65.6
2022-10-24T19:08:47.031Z,63.7
2022-10-24T19:14:30.750Z,62.8
2022-10-24T19:20:17.011Z,63
2022-10-24T19:26:08.360Z,64.8
2022-10-24T19:31:43.509Z,65.7
2022-10-24T19:37:18.437Z,65.4
2022-10-24T19:43:01.634Z,66.4
2022-10-24T19:48:42.751Z,68.1
2022-10-24T19:54:27.494Z,71.2
2022-10-24T20:00:05.964Z,72.3
2022-10-24T20:05:40.910Z,71.6
2022-10-24T20:11:20.070Z,72.3
2022-10-24T20:16:56.536Z,73.2
2022-10-24T20:22:49.431Z,72.6
2022-10-24T20:28:42.970Z,72.1
2022-10-24T20:34:18.223Z,71.8
2022-10-24T20:39:53.196Z,73
2022-10-24T20:45:28.066Z,74
2022-10-24T20:51:11.761Z,72.9
2022-10-24T20:56:48.571Z,73.5
2022-10-24T21:02:24.055Z,70.5
2022-10-24T21:08:01.239Z,74.4
2022-10-24T21:13:36.145Z,74.1
2022-10-24T21:19:11.982Z,72.8
2022-10-24T21:25:10.978Z,70
2022-10-24T21:30:51.908Z,69.2
2022-10-24T21:36:38.968Z,68.8
2022-10-24T21:42:14.108Z,67.9
2022-10-24T21:47:49.926Z,67.1
2022-10-24T21:53:28.731Z,66.6
2022-10-24T21:59:07.218Z,66.5
2022-10-24T22:05:21.979Z,65.9
2022-10-24T22:10:56.829Z,65.2
2022-10-24T22:16:37.042Z,65.3
2022-10-24T22:22:19.722Z,65.5
2022-10-24T22:27:54.755Z,65.7
2022-10-24T22:33:34.934Z,66
2022-10-24T22:39:16.619Z,66.1
2022-10-24T22:44:57.245Z,66.2
2022-10-24T22:50:44.642Z,66.3
2022-10-24T22:56:29.527Z,66.4
2022-10-24T23:02:04.979Z,66.5
2022-10-24T23:07:54.118Z,66.6
2022-10-24T23:13:29.320Z,66.8
2022-10-24T23:19:04.139Z,66.9
2022-10-24T23:25:04.786Z,66.7
2022-10-24T23:31:01.194Z,67.1
2022-10-24T23:36:46.217Z,67.2
2022-10-24T23:42:26.301Z,66.9
2022-10-24T23:48:08.077Z,67.1
2022-10-24T23:53:50.842Z,67.2
2022-10-24T23:59:25.959Z,67.2
